Terminal Aerodrome Forecast
Issued by NWS Charleston, WV

Home | Current Version | Previous Version | Text Only | Print | Product List | Glossary On
Versions: 1 2 3 4 5 6 7 8 9 10 11 12 13 14 15 16 17 18 19 20 21 22 23 24 25 26 27 28 29 30 31 32 33
000
FTUS41 KRLX 030500 RRA
TAFHTS
TAF
KHTS 030553Z 0306/0406 VRB02KT 6SM BR SCT001 BKN035
      TEMPO 0306/0308 1SM BR BKN001
     FM030800 00000KT 1SM BR BKN001 BKN010
     FM031300 00000KT 3SM BR BKN015
     FM031400 00000KT P6SM BKN020
     FM031500 VRB02KT P6SM BKN035
     FM031600 VRB02KT P6SM SCT040=

USA.gov is the U.S. government's official web portal to all federal, state and local government web resources and services.